PVG weather

Shanghai Pudong International Airport
Shanghai, Shanghai Municipality, China

Public forecast

Using degrees Celsius for public forecast. Weather courtesy of forecast.io.

METAR (pilot weather report)

Retrieved 2019/06/17 09:30 UTC (0 seconds ago):

ZSPD 170930Z 18007MPS CAVOK 26/20 Q1010 NOSIG

TAF (pilot weather forecast)

Retrieved 2019/06/17 06:00 UTC (3 hours ago):

TAF ZSPD 170319Z 1706/1806 17006MPS 6000 BKN010 TX31/1706Z TN21/1721Z